Погода Становона 2 недели

Мазовецкое воеводство, Польша

18 - 31 мая
  • 18мая
    Сегодня
    +10°
    +22°
    Ясно и безоблачно
    ВремяПогодаТемператураВлажностьДавлениеВетер, м/сВероятность осадков
    02:00Ясно и безоблачно+11°C50 %753 мм2.9 м/с2 %
    05:00Ясно и безоблачно+10°C57 %753 мм2.8 м/с2 %
    08:00Ясно и безоблачно+15°C50 %753 мм3.6 м/с2 %
    11:00Ясно и безоблачно+19°C38 %753 мм4.6 м/с2 %
    14:00Ясно и безоблачно+21°C37 %752 мм4.5 м/с2 %
    17:00Облачно с прояснениями+21°C37 %751 мм3.4 м/с14 %
    20:00Облачно с прояснениями+17°C68 %751 мм2.0 м/с16 %
    23:00Небольшая облачность+13°C77 %751 мм1.6 м/с5 %
  • 19мая
    Воскресенье
    +10°
    +22°
    Практически безоблачно
    ВремяПогодаТемператураВлажностьДавлениеВетер, м/сВероятность осадков
    02:00Небольшая облачность+12°C84 %751 мм1.8 м/с2 %
    05:00Облачно с прояснениями+10°C91 %751 мм1.9 м/с3 %
    08:00Облачно с прояснениями+16°C75 %751 мм2.8 м/с11 %
    11:00Облачно с прояснениями+20°C55 %751 мм3.5 м/с20 %
    14:00Практически безоблачно+21°C46 %750 мм3.4 м/с15 %
    17:00Облачно с прояснениями+21°C41 %749 мм3.1 м/с31 %
    20:00Облачно с прояснениями+18°C82 %749 мм1.7 м/с38 %
    23:00Пасмурно, сплошная облачность+13°C81 %749 мм1.5 м/с14 %
  • 20мая
    Понедельник
    +11°
    +23°
    Практически безоблачно
    ВремяПогодаТемператураВлажностьДавлениеВетер, м/сВероятность осадков
    02:00Пасмурно, ливень+12°C89 %750 мм1.3 м/с21 %
    05:00Облачно с прояснениями+11°C94 %750 мм1.2 м/с27 %
    08:00Облачно с прояснениями+17°C84 %751 мм1.8 м/с29 %
    11:00Практически безоблачно+20°C64 %751 мм2.5 м/с30 %
    14:00Практически безоблачно+22°C52 %751 мм2.7 м/с39 %
    17:00Практически безоблачно+22°C50 %750 мм2.5 м/с31 %
    20:00Практически безоблачно+19°C66 %751 мм1.7 м/с21 %
    23:00Облачно с прояснениями+14°C80 %751 мм1.7 м/с2 %
  • 21мая
    Вторник
    +12°
    +26°
    Ясно и безоблачно
    ВремяПогодаТемператураВлажностьДавлениеВетер, м/сВероятность осадков
    02:00Ясно и безоблачно+13°C89 %752 мм2.0 м/с2 %
    05:00Ясно и безоблачно+12°C94 %752 мм2.0 м/с2 %
    08:00Ясно и безоблачно+18°C75 %752 мм3.0 м/с2 %
    11:00Ясно и безоблачно+23°C50 %752 мм3.7 м/с10 %
    14:00Ясно и безоблачно+25°C42 %751 мм3.7 м/с17 %
    17:00Ясно и безоблачно+26°C39 %750 мм3.9 м/с15 %
    20:00Ясно и безоблачно+22°C50 %750 мм2.8 м/с8 %
    23:00Ясно и безоблачно+18°C62 %750 мм3.4 м/с7 %
Мы используем cookies
Соглашаюсь